sensor_id;sensor_type;location;lat;lon;timestamp;P1;durP1;ratioP1;P2;durP2;ratioP2
32082;SDS011;18597;48.328;7.932;2022-10-14T00:02:16;20.57;;;10.33;;
32082;SDS011;18597;48.328;7.932;2022-10-14T00:04:42;16.10;;;9.13;;
32082;SDS011;18597;48.328;7.932;2022-10-14T00:07:07;10.90;;;9.80;;
32082;SDS011;18597;48.328;7.932;2022-10-14T00:09:33;11.10;;;8.80;;
32082;SDS011;18597;48.328;7.932;2022-10-14T00:11:59;13.03;;;9.00;;
32082;SDS011;18597;48.328;7.932;2022-10-14T00:14:25;12.20;;;8.87;;
32082;SDS011;18597;48.328;7.932;2022-10-14T00:16:51;11.13;;;8.80;;
32082;SDS011;18597;48.328;7.932;2022-10-14T00:19:19;14.70;;;8.87;;
32082;SDS011;18597;48.328;7.932;2022-10-14T00:21:45;17.03;;;10.10;;
32082;SDS011;18597;48.328;7.932;2022-10-14T00:24:11;22.30;;;10.97;;
32082;SDS011;18597;48.328;7.932;2022-10-14T00:26:39;11.00;;;9.53;;
32082;SDS011;18597;48.328;7.932;2022-10-14T00:29:07;12.40;;;9.60;;
32082;SDS011;18597;48.328;7.932;2022-10-14T00:31:38;12.07;;;10.20;;
32082;SDS011;18597;48.328;7.932;2022-10-14T00:34:04;14.50;;;9.67;;
32082;SDS011;18597;48.328;7.932;2022-10-14T00:36:30;14.70;;;9.47;;
32082;SDS011;18597;48.328;7.932;2022-10-14T00:38:56;14.40;;;9.80;;
32082;SDS011;18597;48.328;7.932;2022-10-14T00:41:23;8.83;;;8.13;;
32082;SDS011;18597;48.328;7.932;2022-10-14T00:46:52;13.33;;;9.43;;
32082;SDS011;18597;48.328;7.932;2022-10-14T00:49:26;18.80;;;9.13;;
32082;SDS011;18597;48.328;7.932;2022-10-14T00:51:59;16.97;;;9.33;;
32082;SDS011;18597;48.328;7.932;2022-10-14T00:54:32;10.50;;;9.40;;
32082;SDS011;18597;48.328;7.932;2022-10-14T00:57:02;16.37;;;9.83;;
32082;SDS011;18597;48.328;7.932;2022-10-14T00:59:29;12.17;;;8.10;;
32082;SDS011;18597;48.328;7.932;2022-10-14T01:01:57;15.63;;;9.80;;
32082;SDS011;18597;48.328;7.932;2022-10-14T01:04:23;10.83;;;9.67;;
32082;SDS011;18597;48.328;7.932;2022-10-14T01:10:23;13.87;;;8.70;;
32082;SDS011;18597;48.328;7.932;2022-10-14T01:21:47;10.63;;;9.50;;
32082;SDS011;18597;48.328;7.932;2022-10-14T01:30:57;15.43;;;8.73;;
32082;SDS011;18597;48.328;7.932;2022-10-14T01:33:33;15.00;;;9.60;;
32082;SDS011;18597;48.328;7.932;2022-10-14T01:36:05;13.73;;;9.70;;
32082;SDS011;18597;48.328;7.932;2022-10-14T01:38:59;15.90;;;9.00;;
32082;SDS011;18597;48.328;7.932;2022-10-14T01:41:38;15.70;;;9.63;;
32082;SDS011;18597;48.328;7.932;2022-10-14T01:44:11;15.53;;;9.57;;
32082;SDS011;18597;48.328;7.932;2022-10-14T01:46:41;19.77;;;10.57;;
32082;SDS011;18597;48.328;7.932;2022-10-14T01:49:12;14.73;;;9.57;;
32082;SDS011;18597;48.328;7.932;2022-10-14T01:51:51;18.83;;;9.60;;
32082;SDS011;18597;48.328;7.932;2022-10-14T01:54:29;9.97;;;8.80;;
32082;SDS011;18597;48.328;7.932;2022-10-14T01:57:01;20.03;;;8.70;;
32082;SDS011;18597;48.328;7.932;2022-10-14T01:59:32;14.20;;;8.83;;
32082;SDS011;18597;48.328;7.932;2022-10-14T02:02:02;13.70;;;9.53;;
32082;SDS011;18597;48.328;7.932;2022-10-14T02:04:28;12.43;;;8.70;;
32082;SDS011;18597;48.328;7.932;2022-10-14T02:07:11;9.47;;;8.47;;
32082;SDS011;18597;48.328;7.932;2022-10-14T02:10:20;12.00;;;8.30;;
32082;SDS011;18597;48.328;7.932;2022-10-14T02:13:22;13.70;;;9.63;;
32082;SDS011;18597;48.328;7.932;2022-10-14T02:16:36;14.37;;;8.70;;
32082;SDS011;18597;48.328;7.932;2022-10-14T02:19:00;21.30;;;10.57;;
32082;SDS011;18597;48.328;7.932;2022-10-14T02:24:50;16.03;;;9.83;;
32082;SDS011;18597;48.328;7.932;2022-10-14T02:27:21;11.03;;;9.00;;
32082;SDS011;18597;48.328;7.932;2022-10-14T02:29:51;10.83;;;8.80;;
32082;SDS011;18597;48.328;7.932;2022-10-14T02:32:20;13.70;;;9.50;;
32082;SDS011;18597;48.328;7.932;2022-10-14T02:34:50;10.10;;;8.93;;
32082;SDS011;18597;48.328;7.932;2022-10-14T02:37:21;11.53;;;9.70;;
32082;SDS011;18597;48.328;7.932;2022-10-14T02:39:52;13.60;;;9.30;;
32082;SDS011;18597;48.328;7.932;2022-10-14T02:42:29;16.10;;;9.80;;
32082;SDS011;18597;48.328;7.932;2022-10-14T02:44:56;11.87;;;9.63;;
32082;SDS011;18597;48.328;7.932;2022-10-14T02:47:24;9.70;;;8.33;;
32082;SDS011;18597;48.328;7.932;2022-10-14T02:49:51;11.30;;;8.80;;
32082;SDS011;18597;48.328;7.932;2022-10-14T02:52:17;17.17;;;9.43;;
32082;SDS011;18597;48.328;7.932;2022-10-14T02:54:44;11.80;;;8.70;;
32082;SDS011;18597;48.328;7.932;2022-10-14T02:57:10;16.37;;;10.17;;
32082;SDS011;18597;48.328;7.932;2022-10-14T02:59:36;17.30;;;9.60;;
32082;SDS011;18597;48.328;7.932;2022-10-14T03:02:03;20.13;;;10.87;;
32082;SDS011;18597;48.328;7.932;2022-10-14T03:04:31;15.30;;;8.90;;
32082;SDS011;18597;48.328;7.932;2022-10-14T03:06:58;9.83;;;8.83;;
32082;SDS011;18597;48.328;7.932;2022-10-14T03:09:23;14.47;;;9.30;;
32082;SDS011;18597;48.328;7.932;2022-10-14T03:11:49;17.10;;;9.37;;
32082;SDS011;18597;48.328;7.932;2022-10-14T03:14:15;12.63;;;9.43;;
32082;SDS011;18597;48.328;7.932;2022-10-14T03:16:41;13.60;;;9.90;;
32082;SDS011;18597;48.328;7.932;2022-10-14T03:19:07;13.17;;;9.60;;
32082;SDS011;18597;48.328;7.932;2022-10-14T03:21:33;10.60;;;8.47;;
32082;SDS011;18597;48.328;7.932;2022-10-14T03:23:59;16.47;;;10.77;;
32082;SDS011;18597;48.328;7.932;2022-10-14T03:26:25;13.90;;;10.47;;
32082;SDS011;18597;48.328;7.932;2022-10-14T03:28:52;17.80;;;9.77;;
32082;SDS011;18597;48.328;7.932;2022-10-14T03:31:18;16.97;;;8.90;;
32082;SDS011;18597;48.328;7.932;2022-10-14T03:33:44;14.60;;;9.73;;
32082;SDS011;18597;48.328;7.932;2022-10-14T03:36:09;15.80;;;10.47;;
32082;SDS011;18597;48.328;7.932;2022-10-14T03:38:36;12.30;;;10.20;;
32082;SDS011;18597;48.328;7.932;2022-10-14T03:41:02;20.77;;;10.20;;
32082;SDS011;18597;48.328;7.932;2022-10-14T03:43:28;12.70;;;9.83;;
32082;SDS011;18597;48.328;7.932;2022-10-14T03:45:54;13.50;;;9.47;;
32082;SDS011;18597;48.328;7.932;2022-10-14T03:48:20;18.03;;;10.07;;
32082;SDS011;18597;48.328;7.932;2022-10-14T03:50:46;14.50;;;10.13;;
32082;SDS011;18597;48.328;7.932;2022-10-14T03:53:12;20.23;;;9.33;;
32082;SDS011;18597;48.328;7.932;2022-10-14T03:55:38;12.63;;;10.17;;
32082;SDS011;18597;48.328;7.932;2022-10-14T03:58:05;19.43;;;10.47;;
32082;SDS011;18597;48.328;7.932;2022-10-14T04:00:30;15.55;;;10.93;;
32082;SDS011;18597;48.328;7.932;2022-10-14T04:02:57;16.73;;;9.63;;
32082;SDS011;18597;48.328;7.932;2022-10-14T04:05:23;12.50;;;10.50;;
32082;SDS011;18597;48.328;7.932;2022-10-14T04:07:49;11.90;;;9.70;;
32082;SDS011;18597;48.328;7.932;2022-10-14T04:10:15;14.60;;;10.60;;
32082;SDS011;18597;48.328;7.932;2022-10-14T04:12:41;15.30;;;10.40;;
32082;SDS011;18597;48.328;7.932;2022-10-14T04:15:08;13.10;;;10.30;;
32082;SDS011;18597;48.328;7.932;2022-10-14T04:17:34;12.47;;;9.83;;
32082;SDS011;18597;48.328;7.932;2022-10-14T04:20:00;16.77;;;10.70;;
32082;SDS011;18597;48.328;7.932;2022-10-14T04:22:26;16.40;;;9.20;;
32082;SDS011;18597;48.328;7.932;2022-10-14T04:24:53;11.13;;;9.60;;
32082;SDS011;18597;48.328;7.932;2022-10-14T04:27:19;14.97;;;10.37;;
32082;SDS011;18597;48.328;7.932;2022-10-14T04:29:45;23.10;;;11.40;;
32082;SDS011;18597;48.328;7.932;2022-10-14T04:32:11;14.60;;;10.40;;
32082;SDS011;18597;48.328;7.932;2022-10-14T04:34:37;20.00;;;10.03;;
32082;SDS011;18597;48.328;7.932;2022-10-14T04:37:03;11.97;;;8.63;;
32082;SDS011;18597;48.328;7.932;2022-10-14T04:39:29;9.97;;;8.97;;
32082;SDS011;18597;48.328;7.932;2022-10-14T04:41:54;19.83;;;10.50;;
32082;SDS011;18597;48.328;7.932;2022-10-14T04:44:20;17.10;;;11.60;;
32082;SDS011;18597;48.328;7.932;2022-10-14T04:46:46;14.80;;;10.90;;
32082;SDS011;18597;48.328;7.932;2022-10-14T04:49:12;13.03;;;10.17;;
32082;SDS011;18597;48.328;7.932;2022-10-14T04:51:40;14.30;;;9.40;;
32082;SDS011;18597;48.328;7.932;2022-10-14T04:54:07;18.07;;;10.60;;
32082;SDS011;18597;48.328;7.932;2022-10-14T04:56:32;16.00;;;10.30;;
32082;SDS011;18597;48.328;7.932;2022-10-14T04:58:58;20.77;;;10.30;;
32082;SDS011;18597;48.328;7.932;2022-10-14T05:01:24;19.20;;;11.10;;
32082;SDS011;18597;48.328;7.932;2022-10-14T05:03:50;15.67;;;9.30;;
32082;SDS011;18597;48.328;7.932;2022-10-14T05:06:16;11.80;;;9.40;;
32082;SDS011;18597;48.328;7.932;2022-10-14T05:08:42;14.37;;;9.50;;
32082;SDS011;18597;48.328;7.932;2022-10-14T05:11:08;16.30;;;8.90;;
32082;SDS011;18597;48.328;7.932;2022-10-14T05:13:34;15.20;;;9.40;;
32082;SDS011;18597;48.328;7.932;2022-10-14T05:16:00;13.33;;;9.40;;
32082;SDS011;18597;48.328;7.932;2022-10-14T05:18:27;14.53;;;9.97;;
32082;SDS011;18597;48.328;7.932;2022-10-14T05:20:53;12.30;;;9.70;;
32082;SDS011;18597;48.328;7.932;2022-10-14T05:23:21;13.77;;;9.93;;
32082;SDS011;18597;48.328;7.932;2022-10-14T05:25:47;20.97;;;10.63;;
32082;SDS011;18597;48.328;7.932;2022-10-14T05:28:13;15.43;;;8.80;;
32082;SDS011;18597;48.328;7.932;2022-10-14T05:30:38;12.33;;;9.40;;
32082;SDS011;18597;48.328;7.932;2022-10-14T05:33:04;9.77;;;8.63;;
32082;SDS011;18597;48.328;7.932;2022-10-14T05:35:30;13.70;;;8.57;;
32082;SDS011;18597;48.328;7.932;2022-10-14T05:37:56;15.33;;;9.13;;
32082;SDS011;18597;48.328;7.932;2022-10-14T05:40:22;11.67;;;9.10;;
32082;SDS011;18597;48.328;7.932;2022-10-14T05:42:48;15.30;;;9.70;;
32082;SDS011;18597;48.328;7.932;2022-10-14T05:45:14;20.47;;;9.33;;
32082;SDS011;18597;48.328;7.932;2022-10-14T05:47:43;24.53;;;9.63;;
32082;SDS011;18597;48.328;7.932;2022-10-14T05:50:09;11.80;;;8.80;;
32082;SDS011;18597;48.328;7.932;2022-10-14T05:52:36;15.00;;;10.17;;
32082;SDS011;18597;48.328;7.932;2022-10-14T05:55:03;10.90;;;8.50;;
32082;SDS011;18597;48.328;7.932;2022-10-14T05:57:31;10.47;;;8.67;;
32082;SDS011;18597;48.328;7.932;2022-10-14T05:59:57;18.50;;;9.47;;
32082;SDS011;18597;48.328;7.932;2022-10-14T06:02:24;11.30;;;9.37;;
32082;SDS011;18597;48.328;7.932;2022-10-14T06:04:50;16.40;;;13.57;;
32082;SDS011;18597;48.328;7.932;2022-10-14T06:07:16;19.53;;;14.50;;
32082;SDS011;18597;48.328;7.932;2022-10-14T06:09:42;16.40;;;10.50;;
32082;SDS011;18597;48.328;7.932;2022-10-14T06:12:08;9.43;;;8.27;;
32082;SDS011;18597;48.328;7.932;2022-10-14T06:14:34;11.40;;;8.00;;
32082;SDS011;18597;48.328;7.932;2022-10-14T06:17:02;11.40;;;7.87;;
32082;SDS011;18597;48.328;7.932;2022-10-14T06:19:30;12.13;;;9.10;;
32082;SDS011;18597;48.328;7.932;2022-10-14T06:21:57;12.00;;;8.50;;
32082;SDS011;18597;48.328;7.932;2022-10-14T06:24:23;13.27;;;10.17;;
32082;SDS011;18597;48.328;7.932;2022-10-14T06:26:49;13.57;;;9.93;;
32082;SDS011;18597;48.328;7.932;2022-10-14T06:29:15;13.20;;;9.70;;
32082;SDS011;18597;48.328;7.932;2022-10-14T06:31:41;16.53;;;11.03;;
32082;SDS011;18597;48.328;7.932;2022-10-14T06:34:07;14.90;;;10.20;;
32082;SDS011;18597;48.328;7.932;2022-10-14T06:36:33;9.47;;;8.17;;
32082;SDS011;18597;48.328;7.932;2022-10-14T06:39:00;11.20;;;9.10;;
32082;SDS011;18597;48.328;7.932;2022-10-14T06:41:28;12.47;;;9.30;;
32082;SDS011;18597;48.328;7.932;2022-10-14T06:43:54;9.73;;;7.80;;
32082;SDS011;18597;48.328;7.932;2022-10-14T06:46:20;17.23;;;8.73;;
32082;SDS011;18597;48.328;7.932;2022-10-14T06:48:46;9.37;;;8.13;;
32082;SDS011;18597;48.328;7.932;2022-10-14T06:51:12;10.93;;;8.43;;
32082;SDS011;18597;48.328;7.932;2022-10-14T06:53:37;15.10;;;7.20;;
32082;SDS011;18597;48.328;7.932;2022-10-14T06:56:04;9.67;;;7.63;;
32082;SDS011;18597;48.328;7.932;2022-10-14T06:58:32;8.80;;;7.90;;
32082;SDS011;18597;48.328;7.932;2022-10-14T07:00:59;13.03;;;8.17;;
32082;SDS011;18597;48.328;7.932;2022-10-14T07:03:27;9.10;;;7.33;;
32082;SDS011;18597;48.328;7.932;2022-10-14T07:05:53;10.17;;;7.60;;
32082;SDS011;18597;48.328;7.932;2022-10-14T07:08:19;9.63;;;8.63;;
32082;SDS011;18597;48.328;7.932;2022-10-14T07:10:45;13.80;;;9.37;;
32082;SDS011;18597;48.328;7.932;2022-10-14T07:13:12;13.83;;;9.83;;
32082;SDS011;18597;48.328;7.932;2022-10-14T07:15:38;13.23;;;9.90;;
32082;SDS011;18597;48.328;7.932;2022-10-14T07:18:04;15.30;;;10.07;;
32082;SDS011;18597;48.328;7.932;2022-10-14T07:20:32;18.40;;;9.10;;
32082;SDS011;18597;48.328;7.932;2022-10-14T07:22:58;11.33;;;8.63;;
32082;SDS011;18597;48.328;7.932;2022-10-14T07:25:24;15.57;;;8.77;;
32082;SDS011;18597;48.328;7.932;2022-10-14T07:27:51;20.63;;;10.10;;
32082;SDS011;18597;48.328;7.932;2022-10-14T07:30:18;12.97;;;8.90;;
32082;SDS011;18597;48.328;7.932;2022-10-14T07:32:44;13.93;;;8.77;;
32082;SDS011;18597;48.328;7.932;2022-10-14T07:35:10;11.53;;;8.50;;
32082;SDS011;18597;48.328;7.932;2022-10-14T07:37:35;12.23;;;9.43;;
32082;SDS011;18597;48.328;7.932;2022-10-14T07:40:02;14.50;;;8.37;;
32082;SDS011;18597;48.328;7.932;2022-10-14T07:42:28;9.43;;;7.60;;
32082;SDS011;18597;48.328;7.932;2022-10-14T07:44:54;10.53;;;7.57;;
32082;SDS011;18597;48.328;7.932;2022-10-14T07:47:21;13.20;;;7.80;;
32082;SDS011;18597;48.328;7.932;2022-10-14T07:49:47;8.50;;;7.63;;
32082;SDS011;18597;48.328;7.932;2022-10-14T07:52:13;7.83;;;6.90;;
32082;SDS011;18597;48.328;7.932;2022-10-14T07:54:40;8.20;;;6.30;;
32082;SDS011;18597;48.328;7.932;2022-10-14T07:57:06;9.50;;;8.50;;
32082;SDS011;18597;48.328;7.932;2022-10-14T07:59:32;28.83;;;10.20;;
32082;SDS011;18597;48.328;7.932;2022-10-14T08:01:58;14.00;;;9.47;;
32082;SDS011;18597;48.328;7.932;2022-10-14T08:04:24;15.50;;;10.20;;
32082;SDS011;18597;48.328;7.932;2022-10-14T08:06:50;14.20;;;10.03;;
32082;SDS011;18597;48.328;7.932;2022-10-14T08:09:17;17.73;;;7.60;;
32082;SDS011;18597;48.328;7.932;2022-10-14T08:11:44;12.67;;;8.97;;
32082;SDS011;18597;48.328;7.932;2022-10-14T08:14:10;24.03;;;21.60;;
32082;SDS011;18597;48.328;7.932;2022-10-14T08:16:36;26.50;;;23.07;;
32082;SDS011;18597;48.328;7.932;2022-10-14T08:19:04;12.93;;;10.60;;
32082;SDS011;18597;48.328;7.932;2022-10-14T08:21:32;7.50;;;5.47;;
32082;SDS011;18597;48.328;7.932;2022-10-14T08:23:58;11.10;;;6.43;;
32082;SDS011;18597;48.328;7.932;2022-10-14T08:26:27;7.07;;;5.30;;
32082;SDS011;18597;48.328;7.932;2022-10-14T08:28:57;11.20;;;5.33;;
32082;SDS011;18597;48.328;7.932;2022-10-14T08:31:26;4.90;;;4.43;;
32082;SDS011;18597;48.328;7.932;2022-10-14T08:33:52;6.87;;;4.87;;
32082;SDS011;18597;48.328;7.932;2022-10-14T08:36:18;5.53;;;5.03;;
32082;SDS011;18597;48.328;7.932;2022-10-14T08:38:46;7.27;;;4.40;;
32082;SDS011;18597;48.328;7.932;2022-10-14T08:41:22;4.80;;;4.40;;
32082;SDS011;18597;48.328;7.932;2022-10-14T08:44:46;12.17;;;5.20;;
32082;SDS011;18597;48.328;7.932;2022-10-14T08:47:34;6.20;;;4.83;;
32082;SDS011;18597;48.328;7.932;2022-10-14T08:50:23;12.43;;;5.60;;
32082;SDS011;18597;48.328;7.932;2022-10-14T08:52:58;6.13;;;4.93;;
32082;SDS011;18597;48.328;7.932;2022-10-14T08:55:36;6.30;;;5.70;;
32082;SDS011;18597;48.328;7.932;2022-10-14T08:58:17;5.47;;;4.97;;
32082;SDS011;18597;48.328;7.932;2022-10-14T09:00:50;8.80;;;5.70;;
32082;SDS011;18597;48.328;7.932;2022-10-14T09:03:19;6.53;;;4.43;;
32082;SDS011;18597;48.328;7.932;2022-10-14T09:05:59;5.80;;;4.20;;
32082;SDS011;18597;48.328;7.932;2022-10-14T09:08:33;8.80;;;4.80;;
32082;SDS011;18597;48.328;7.932;2022-10-14T09:11:09;4.63;;;4.23;;
32082;SDS011;18597;48.328;7.932;2022-10-14T09:13:41;9.93;;;4.37;;
32082;SDS011;18597;48.328;7.932;2022-10-14T09:16:21;10.83;;;4.27;;
32082;SDS011;18597;48.328;7.932;2022-10-14T09:18:53;7.43;;;4.50;;
32082;SDS011;18597;48.328;7.932;2022-10-14T09:21:28;9.40;;;4.73;;
32082;SDS011;18597;48.328;7.932;2022-10-14T09:24:05;4.37;;;3.97;;
32082;SDS011;18597;48.328;7.932;2022-10-14T09:26:56;3.17;;;2.33;;
32082;SDS011;18597;48.328;7.932;2022-10-14T09:29:41;2.73;;;2.50;;
32082;SDS011;18597;48.328;7.932;2022-10-14T09:32:25;5.23;;;3.50;;
32082;SDS011;18597;48.328;7.932;2022-10-14T09:35:29;5.33;;;3.70;;
32082;SDS011;18597;48.328;7.932;2022-10-14T09:38:01;7.97;;;3.27;;
32082;SDS011;18597;48.328;7.932;2022-10-14T09:40:37;5.30;;;3.23;;
32082;SDS011;18597;48.328;7.932;2022-10-14T09:43:22;5.03;;;4.60;;
32082;SDS011;18597;48.328;7.932;2022-10-14T09:45:50;7.03;;;3.93;;
32082;SDS011;18597;48.328;7.932;2022-10-14T09:48:33;9.53;;;7.57;;
32082;SDS011;18597;48.328;7.932;2022-10-14T09:51:10;9.43;;;4.63;;
32082;SDS011;18597;48.328;7.932;2022-10-14T09:53:59;6.20;;;4.77;;
32082;SDS011;18597;48.328;7.932;2022-10-14T09:56:29;6.43;;;3.90;;
32082;SDS011;18597;48.328;7.932;2022-10-14T09:59:03;3.30;;;3.10;;
32082;SDS011;18597;48.328;7.932;2022-10-14T10:01:39;4.10;;;3.90;;
32082;SDS011;18597;48.328;7.932;2022-10-14T10:04:43;3.40;;;3.10;;
32082;SDS011;18597;48.328;7.932;2022-10-14T10:07:22;4.03;;;3.67;;
32082;SDS011;18597;48.328;7.932;2022-10-14T10:10:00;8.97;;;4.63;;
32082;SDS011;18597;48.328;7.932;2022-10-14T10:12:41;9.57;;;3.70;;
32082;SDS011;18597;48.328;7.932;2022-10-14T10:15:15;2.97;;;2.70;;
32082;SDS011;18597;48.328;7.932;2022-10-14T10:17:45;4.63;;;2.30;;
32082;SDS011;18597;48.328;7.932;2022-10-14T10:22:50;6.20;;;3.43;;
32082;SDS011;18597;48.328;7.932;2022-10-14T10:25:17;6.83;;;3.10;;
32082;SDS011;18597;48.328;7.932;2022-10-14T10:27:46;2.57;;;2.37;;
32082;SDS011;18597;48.328;7.932;2022-10-14T10:36:19;2.97;;;2.20;;
32082;SDS011;18597;48.328;7.932;2022-10-14T10:38:58;2.30;;;2.20;;
32082;SDS011;18597;48.328;7.932;2022-10-14T10:41:50;3.67;;;1.63;;
32082;SDS011;18597;48.328;7.932;2022-10-14T10:44:48;2.60;;;1.67;;
32082;SDS011;18597;48.328;7.932;2022-10-14T10:48:01;5.47;;;2.03;;
32082;SDS011;18597;48.328;7.932;2022-10-14T10:50:50;2.20;;;1.97;;
32082;SDS011;18597;48.328;7.932;2022-10-14T10:54:01;1.67;;;1.33;;
32082;SDS011;18597;48.328;7.932;2022-10-14T10:56:47;4.03;;;1.50;;
32082;SDS011;18597;48.328;7.932;2022-10-14T10:59:30;1.80;;;1.70;;
32082;SDS011;18597;48.328;7.932;2022-10-14T11:02:37;2.23;;;2.03;;
32082;SDS011;18597;48.328;7.932;2022-10-14T11:05:51;1.90;;;1.80;;
32082;SDS011;18597;48.328;7.932;2022-10-14T11:08:55;2.20;;;2.00;;
32082;SDS011;18597;48.328;7.932;2022-10-14T11:11:50;2.77;;;2.60;;
32082;SDS011;18597;48.328;7.932;2022-10-14T11:14:41;2.47;;;2.00;;
32082;SDS011;18597;48.328;7.932;2022-10-14T11:17:36;2.10;;;1.90;;
32082;SDS011;18597;48.328;7.932;2022-10-14T11:20:27;4.77;;;1.73;;
32082;SDS011;18597;48.328;7.932;2022-10-14T11:26:42;2.03;;;1.93;;
32082;SDS011;18597;48.328;7.932;2022-10-14T11:36:06;2.40;;;1.30;;
32082;SDS011;18597;48.328;7.932;2022-10-14T11:39:05;3.73;;;1.80;;
32082;SDS011;18597;48.328;7.932;2022-10-14T11:45:32;1.70;;;1.70;;
32082;SDS011;18597;48.328;7.932;2022-10-14T11:48:17;1.70;;;1.60;;
32082;SDS011;18597;48.328;7.932;2022-10-14T11:50:59;1.70;;;1.70;;
32082;SDS011;18597;48.328;7.932;2022-10-14T11:53:38;4.67;;;1.80;;
32082;SDS011;18597;48.328;7.932;2022-10-14T11:56:45;1.57;;;1.47;;
32082;SDS011;18597;48.328;7.932;2022-10-14T11:59:22;3.60;;;1.70;;
32082;SDS011;18597;48.328;7.932;2022-10-14T12:05:35;3.63;;;2.03;;
32082;SDS011;18597;48.328;7.932;2022-10-14T12:11:08;2.37;;;2.17;;
32082;SDS011;18597;48.328;7.932;2022-10-14T12:13:50;1.60;;;1.50;;
32082;SDS011;18597;48.328;7.932;2022-10-14T12:16:22;2.70;;;1.33;;
32082;SDS011;18597;48.328;7.932;2022-10-14T12:18:50;1.40;;;1.40;;
32082;SDS011;18597;48.328;7.932;2022-10-14T12:21:23;1.70;;;1.60;;
32082;SDS011;18597;48.328;7.932;2022-10-14T12:24:15;1.70;;;1.70;;
32082;SDS011;18597;48.328;7.932;2022-10-14T12:26:48;1.70;;;1.70;;
32082;SDS011;18597;48.328;7.932;2022-10-14T12:29:21;3.37;;;1.60;;
32082;SDS011;18597;48.328;7.932;2022-10-14T12:34:46;1.80;;;1.70;;
32082;SDS011;18597;48.328;7.932;2022-10-14T12:42:54;2.10;;;1.80;;
32082;SDS011;18597;48.328;7.932;2022-10-14T12:45:28;4.67;;;3.23;;
32082;SDS011;18597;48.328;7.932;2022-10-14T12:48:18;2.90;;;1.87;;
32082;SDS011;18597;48.328;7.932;2022-10-14T12:50:47;3.90;;;2.20;;
32082;SDS011;18597;48.328;7.932;2022-10-14T12:53:20;8.47;;;4.80;;
32082;SDS011;18597;48.328;7.932;2022-10-14T12:55:53;2.60;;;2.40;;
32082;SDS011;18597;48.328;7.932;2022-10-14T12:58:26;1.80;;;1.70;;
32082;SDS011;18597;48.328;7.932;2022-10-14T13:00:59;2.20;;;2.00;;
32082;SDS011;18597;48.328;7.932;2022-10-14T13:03:32;4.53;;;2.23;;
32082;SDS011;18597;48.328;7.932;2022-10-14T13:06:38;2.20;;;2.00;;
32082;SDS011;18597;48.328;7.932;2022-10-14T13:17:46;1.90;;;1.57;;
32082;SDS011;18597;48.328;7.932;2022-10-14T13:23:16;3.93;;;1.90;;
32082;SDS011;18597;48.328;7.932;2022-10-14T13:26:33;1.50;;;1.50;;
32082;SDS011;18597;48.328;7.932;2022-10-14T13:29:31;4.80;;;1.67;;
32082;SDS011;18597;48.328;7.932;2022-10-14T13:32:44;1.93;;;1.83;;
32082;SDS011;18597;48.328;7.932;2022-10-14T13:35:32;1.80;;;1.70;;
32082;SDS011;18597;48.328;7.932;2022-10-14T13:38:28;5.43;;;2.50;;
32082;SDS011;18597;48.328;7.932;2022-10-14T13:40:56;2.43;;;2.20;;
32082;SDS011;18597;48.328;7.932;2022-10-14T13:43:39;1.77;;;1.77;;
32082;SDS011;18597;48.328;7.932;2022-10-14T13:46:10;2.50;;;1.60;;
32082;SDS011;18597;48.328;7.932;2022-10-14T13:48:46;2.40;;;1.97;;
32082;SDS011;18597;48.328;7.932;2022-10-14T13:53:51;1.97;;;1.87;;
32082;SDS011;18597;48.328;7.932;2022-10-14T13:56:22;2.53;;;2.03;;
32082;SDS011;18597;48.328;7.932;2022-10-14T13:58:52;1.80;;;1.60;;
32082;SDS011;18597;48.328;7.932;2022-10-14T14:01:20;6.83;;;2.07;;
32082;SDS011;18597;48.328;7.932;2022-10-14T14:03:58;1.27;;;1.17;;
32082;SDS011;18597;48.328;7.932;2022-10-14T14:06:24;3.47;;;2.27;;
32082;SDS011;18597;48.328;7.932;2022-10-14T14:08:59;1.80;;;1.70;;
32082;SDS011;18597;48.328;7.932;2022-10-14T14:11:30;5.93;;;1.50;;
32082;SDS011;18597;48.328;7.932;2022-10-14T14:14:08;1.50;;;1.40;;
32082;SDS011;18597;48.328;7.932;2022-10-14T14:16:47;5.40;;;1.30;;
32082;SDS011;18597;48.328;7.932;2022-10-14T14:19:24;2.87;;;1.43;;
32082;SDS011;18597;48.328;7.932;2022-10-14T14:22:27;3.30;;;1.30;;
32082;SDS011;18597;48.328;7.932;2022-10-14T14:24:48;4.13;;;1.80;;
32082;SDS011;18597;48.328;7.932;2022-10-14T14:27:16;1.93;;;1.83;;
32082;SDS011;18597;48.328;7.932;2022-10-14T14:29:50;0.93;;;0.93;;
32082;SDS011;18597;48.328;7.932;2022-10-14T14:32:19;1.27;;;1.00;;
32082;SDS011;18597;48.328;7.932;2022-10-14T14:34:52;3.90;;;1.53;;
32082;SDS011;18597;48.328;7.932;2022-10-14T14:37:23;2.50;;;1.30;;
32082;SDS011;18597;48.328;7.932;2022-10-14T14:39:54;0.77;;;0.73;;
32082;SDS011;18597;48.328;7.932;2022-10-14T14:42:24;0.93;;;0.93;;
32082;SDS011;18597;48.328;7.932;2022-10-14T14:44:55;3.33;;;1.57;;
32082;SDS011;18597;48.328;7.932;2022-10-14T14:47:25;0.57;;;0.57;;
32082;SDS011;18597;48.328;7.932;2022-10-14T14:49:53;1.23;;;1.17;;
32082;SDS011;18597;48.328;7.932;2022-10-14T14:52:21;9.40;;;1.33;;
32082;SDS011;18597;48.328;7.932;2022-10-14T14:54:47;0.80;;;0.80;;
32082;SDS011;18597;48.328;7.932;2022-10-14T14:57:15;5.77;;;1.20;;
32082;SDS011;18597;48.328;7.932;2022-10-14T14:59:48;1.83;;;1.30;;
32082;SDS011;18597;48.328;7.932;2022-10-14T15:02:26;1.20;;;1.10;;
32082;SDS011;18597;48.328;7.932;2022-10-14T15:05:01;1.97;;;1.87;;
32082;SDS011;18597;48.328;7.932;2022-10-14T15:07:30;0.97;;;0.97;;
32082;SDS011;18597;48.328;7.932;2022-10-14T15:09:57;1.73;;;1.63;;
32082;SDS011;18597;48.328;7.932;2022-10-14T15:12:28;2.87;;;2.20;;
32082;SDS011;18597;48.328;7.932;2022-10-14T15:15:03;1.53;;;1.53;;
32082;SDS011;18597;48.328;7.932;2022-10-14T15:17:39;1.43;;;1.43;;
32082;SDS011;18597;48.328;7.932;2022-10-14T15:22:45;2.87;;;1.57;;
32082;SDS011;18597;48.328;7.932;2022-10-14T15:27:54;2.40;;;2.10;;
32082;SDS011;18597;48.328;7.932;2022-10-14T15:33:01;2.30;;;2.20;;
32082;SDS011;18597;48.328;7.932;2022-10-14T15:35:38;3.80;;;1.97;;
32082;SDS011;18597;48.328;7.932;2022-10-14T15:38:14;1.63;;;1.57;;
32082;SDS011;18597;48.328;7.932;2022-10-14T15:40:42;1.90;;;1.90;;
32082;SDS011;18597;48.328;7.932;2022-10-14T15:43:11;4.90;;;1.93;;
32082;SDS011;18597;48.328;7.932;2022-10-14T15:45:41;3.60;;;2.43;;
32082;SDS011;18597;48.328;7.932;2022-10-14T15:48:14;10.37;;;6.27;;
32082;SDS011;18597;48.328;7.932;2022-10-14T15:50:44;2.67;;;2.57;;
32082;SDS011;18597;48.328;7.932;2022-10-14T15:53:13;16.83;;;3.50;;
32082;SDS011;18597;48.328;7.932;2022-10-14T15:55:41;3.40;;;3.10;;
32082;SDS011;18597;48.328;7.932;2022-10-14T15:58:08;3.87;;;3.17;;
32082;SDS011;18597;48.328;7.932;2022-10-14T16:00:33;3.00;;;2.70;;
32082;SDS011;18597;48.328;7.932;2022-10-14T16:03:00;1.73;;;1.73;;
32082;SDS011;18597;48.328;7.932;2022-10-14T16:05:27;3.00;;;2.60;;
32082;SDS011;18597;48.328;7.932;2022-10-14T16:07:54;2.83;;;2.70;;
32082;SDS011;18597;48.328;7.932;2022-10-14T16:10:21;2.83;;;2.70;;
32082;SDS011;18597;48.328;7.932;2022-10-14T16:12:49;6.20;;;2.93;;
32082;SDS011;18597;48.328;7.932;2022-10-14T16:15:19;2.40;;;2.40;;
32082;SDS011;18597;48.328;7.932;2022-10-14T16:17:54;5.60;;;3.43;;
32082;SDS011;18597;48.328;7.932;2022-10-14T16:20:20;2.93;;;2.73;;
32082;SDS011;18597;48.328;7.932;2022-10-14T16:22:46;2.63;;;2.37;;
32082;SDS011;18597;48.328;7.932;2022-10-14T16:25:15;2.97;;;2.60;;
32082;SDS011;18597;48.328;7.932;2022-10-14T16:27:48;2.90;;;2.80;;
32082;SDS011;18597;48.328;7.932;2022-10-14T16:30:14;2.10;;;2.00;;
32082;SDS011;18597;48.328;7.932;2022-10-14T16:32:40;3.53;;;2.03;;
32082;SDS011;18597;48.328;7.932;2022-10-14T16:35:07;1.10;;;1.10;;